sensor_id;sensor_type;location;lat;lon;timestamp;P1;durP1;ratioP1;P2;durP2;ratioP2
79346;SDS011;68815;48.810;44.482;2023-09-30T00:02:51;6.6;;;3;;
79346;SDS011;68815;48.810;44.482;2023-09-30T00:05:53;8.4;;;2.6;;
79346;SDS011;68815;48.810;44.482;2023-09-30T00:08:54;7.4;;;2.8;;
79346;SDS011;68815;48.810;44.482;2023-09-30T00:11:55;7.5;;;3;;
79346;SDS011;68815;48.810;44.482;2023-09-30T00:14:57;7;;;2.9;;
79346;SDS011;68815;48.810;44.482;2023-09-30T00:17:58;6.4;;;3;;
79346;SDS011;68815;48.810;44.482;2023-09-30T00:21:00;8;;;3.1;;
79346;SDS011;68815;48.810;44.482;2023-09-30T00:24:01;7.2;;;3;;
79346;SDS011;68815;48.810;44.482;2023-09-30T00:27:03;7.9;;;3.4;;
79346;SDS011;68815;48.810;44.482;2023-09-30T00:30:06;7.4;;;3.2;;
79346;SDS011;68815;48.810;44.482;2023-09-30T00:33:08;7.8;;;3;;
79346;SDS011;68815;48.810;44.482;2023-09-30T00:36:09;11;;;3.1;;
79346;SDS011;68815;48.810;44.482;2023-09-30T00:39:11;7;;;2.7;;
79346;SDS011;68815;48.810;44.482;2023-09-30T00:42:13;6.1;;;2.9;;
79346;SDS011;68815;48.810;44.482;2023-09-30T00:45:14;8.5;;;3.1;;
79346;SDS011;68815;48.810;44.482;2023-09-30T00:48:16;7.8;;;2.9;;
79346;SDS011;68815;48.810;44.482;2023-09-30T00:51:18;9.1;;;2.9;;
79346;SDS011;68815;48.810;44.482;2023-09-30T00:54:19;6.8;;;2.8;;
79346;SDS011;68815;48.810;44.482;2023-09-30T00:57:22;10.4;;;4.4;;
79346;SDS011;68815;48.810;44.482;2023-09-30T01:00:25;13.5;;;5.5;;
79346;SDS011;68815;48.810;44.482;2023-09-30T01:03:26;6.9;;;3.1;;
79346;SDS011;68815;48.810;44.482;2023-09-30T01:06:28;9.2;;;4;;
79346;SDS011;68815;48.810;44.482;2023-09-30T01:09:30;11.4;;;5.2;;
79346;SDS011;68815;48.810;44.482;2023-09-30T01:12:31;7;;;3.3;;
79346;SDS011;68815;48.810;44.482;2023-09-30T01:15:33;7.9;;;3.4;;
79346;SDS011;68815;48.810;44.482;2023-09-30T01:18:34;8.8;;;3.1;;
79346;SDS011;68815;48.810;44.482;2023-09-30T01:21:36;8.4;;;3.3;;
79346;SDS011;68815;48.810;44.482;2023-09-30T01:24:38;10.2;;;3.5;;
79346;SDS011;68815;48.810;44.482;2023-09-30T01:27:40;7.2;;;3.2;;
79346;SDS011;68815;48.810;44.482;2023-09-30T01:30:42;8.6;;;3;;
79346;SDS011;68815;48.810;44.482;2023-09-30T01:33:44;8.6;;;3.1;;
79346;SDS011;68815;48.810;44.482;2023-09-30T01:36:45;7.4;;;2.9;;
79346;SDS011;68815;48.810;44.482;2023-09-30T01:39:47;7.3;;;3.3;;
79346;SDS011;68815;48.810;44.482;2023-09-30T01:42:48;7.8;;;3.5;;
79346;SDS011;68815;48.810;44.482;2023-09-30T01:45:50;7.6;;;3.1;;
79346;SDS011;68815;48.810;44.482;2023-09-30T01:48:51;7.9;;;3.3;;
79346;SDS011;68815;48.810;44.482;2023-09-30T01:51:53;6.3;;;3.2;;
79346;SDS011;68815;48.810;44.482;2023-09-30T01:54:54;6.7;;;3.2;;
79346;SDS011;68815;48.810;44.482;2023-09-30T01:57:55;8.1;;;3.5;;
79346;SDS011;68815;48.810;44.482;2023-09-30T02:01:01;7.3;;;3.4;;
79346;SDS011;68815;48.810;44.482;2023-09-30T02:04:04;9.5;;;3.4;;
79346;SDS011;68815;48.810;44.482;2023-09-30T02:07:05;7.1;;;3;;
79346;SDS011;68815;48.810;44.482;2023-09-30T02:10:07;8.9;;;3.3;;
79346;SDS011;68815;48.810;44.482;2023-09-30T02:13:10;8.6;;;3.2;;
79346;SDS011;68815;48.810;44.482;2023-09-30T02:16:12;9.9;;;3.4;;
79346;SDS011;68815;48.810;44.482;2023-09-30T02:19:14;10.6;;;3.2;;
79346;SDS011;68815;48.810;44.482;2023-09-30T02:22:16;8.2;;;3.5;;
79346;SDS011;68815;48.810;44.482;2023-09-30T02:25:17;9.3;;;3.8;;
79346;SDS011;68815;48.810;44.482;2023-09-30T02:28:20;8.8;;;3.4;;
79346;SDS011;68815;48.810;44.482;2023-09-30T02:31:22;7.8;;;3.5;;
79346;SDS011;68815;48.810;44.482;2023-09-30T02:34:23;11.1;;;3.5;;
79346;SDS011;68815;48.810;44.482;2023-09-30T02:37:24;8.6;;;3.6;;
79346;SDS011;68815;48.810;44.482;2023-09-30T02:40:26;9.7;;;3.5;;
79346;SDS011;68815;48.810;44.482;2023-09-30T02:43:27;10.9;;;3.7;;
79346;SDS011;68815;48.810;44.482;2023-09-30T02:46:28;10;;;3.7;;
79346;SDS011;68815;48.810;44.482;2023-09-30T02:49:32;9.4;;;3.4;;
79346;SDS011;68815;48.810;44.482;2023-09-30T02:52:33;8.6;;;3.3;;
79346;SDS011;68815;48.810;44.482;2023-09-30T02:55:35;9;;;3.3;;
79346;SDS011;68815;48.810;44.482;2023-09-30T02:58:37;6;;;3.3;;
79346;SDS011;68815;48.810;44.482;2023-09-30T03:01:38;8.6;;;3.8;;
79346;SDS011;68815;48.810;44.482;2023-09-30T03:04:40;8.5;;;3.5;;
79346;SDS011;68815;48.810;44.482;2023-09-30T03:07:42;8.3;;;3.3;;
79346;SDS011;68815;48.810;44.482;2023-09-30T03:10:44;8.5;;;3.6;;
79346;SDS011;68815;48.810;44.482;2023-09-30T03:13:45;8.9;;;3.6;;
79346;SDS011;68815;48.810;44.482;2023-09-30T03:16:47;10;;;3.4;;
79346;SDS011;68815;48.810;44.482;2023-09-30T03:19:48;10.3;;;3.7;;
79346;SDS011;68815;48.810;44.482;2023-09-30T03:22:49;9.5;;;3.4;;
79346;SDS011;68815;48.810;44.482;2023-09-30T03:25:51;9.2;;;3.6;;
79346;SDS011;68815;48.810;44.482;2023-09-30T03:28:52;9.2;;;3.6;;
79346;SDS011;68815;48.810;44.482;2023-09-30T03:31:54;9.3;;;3.6;;
79346;SDS011;68815;48.810;44.482;2023-09-30T03:34:55;10;;;3.6;;
79346;SDS011;68815;48.810;44.482;2023-09-30T03:37:57;11.5;;;3.7;;
79346;SDS011;68815;48.810;44.482;2023-09-30T03:40:58;10.3;;;3.6;;
79346;SDS011;68815;48.810;44.482;2023-09-30T03:44:01;11;;;3.7;;
79346;SDS011;68815;48.810;44.482;2023-09-30T03:47:02;10.4;;;3.8;;
79346;SDS011;68815;48.810;44.482;2023-09-30T03:50:04;8.2;;;3.9;;
79346;SDS011;68815;48.810;44.482;2023-09-30T03:53:07;8.3;;;3.9;;
79346;SDS011;68815;48.810;44.482;2023-09-30T03:56:09;8.3;;;3.8;;
79346;SDS011;68815;48.810;44.482;2023-09-30T03:59:10;9.4;;;3.6;;
79346;SDS011;68815;48.810;44.482;2023-09-30T04:02:12;8.2;;;3.5;;
79346;SDS011;68815;48.810;44.482;2023-09-30T04:05:14;11.2;;;3.4;;
79346;SDS011;68815;48.810;44.482;2023-09-30T04:08:16;11.7;;;4.2;;
79346;SDS011;68815;48.810;44.482;2023-09-30T04:11:17;10.9;;;3.8;;
79346;SDS011;68815;48.810;44.482;2023-09-30T04:14:19;11.8;;;3.7;;
79346;SDS011;68815;48.810;44.482;2023-09-30T04:17:20;11.9;;;3.8;;
79346;SDS011;68815;48.810;44.482;2023-09-30T04:20:22;15.4;;;3.8;;
79346;SDS011;68815;48.810;44.482;2023-09-30T04:23:23;10.9;;;3.9;;
79346;SDS011;68815;48.810;44.482;2023-09-30T04:26:26;9.4;;;3.7;;
79346;SDS011;68815;48.810;44.482;2023-09-30T04:29:28;11.6;;;3.5;;
79346;SDS011;68815;48.810;44.482;2023-09-30T04:32:30;18;;;8.5;;
79346;SDS011;68815;48.810;44.482;2023-09-30T04:35:31;12.6;;;5.2;;
79346;SDS011;68815;48.810;44.482;2023-09-30T04:38:32;14.2;;;4.3;;
79346;SDS011;68815;48.810;44.482;2023-09-30T04:41:34;11.1;;;4.2;;
79346;SDS011;68815;48.810;44.482;2023-09-30T04:44:35;10.2;;;4;;
79346;SDS011;68815;48.810;44.482;2023-09-30T04:47:37;12.2;;;4.8;;
79346;SDS011;68815;48.810;44.482;2023-09-30T04:50:38;11.7;;;3.7;;
79346;SDS011;68815;48.810;44.482;2023-09-30T04:53:40;12.4;;;3.8;;
79346;SDS011;68815;48.810;44.482;2023-09-30T04:56:42;11.1;;;3.4;;
79346;SDS011;68815;48.810;44.482;2023-09-30T04:59:43;10.5;;;3.8;;
79346;SDS011;68815;48.810;44.482;2023-09-30T05:02:45;12.9;;;4;;
79346;SDS011;68815;48.810;44.482;2023-09-30T05:05:47;10.4;;;3.6;;
79346;SDS011;68815;48.810;44.482;2023-09-30T05:08:49;9.4;;;3.7;;
79346;SDS011;68815;48.810;44.482;2023-09-30T05:11:50;11.9;;;4.3;;
79346;SDS011;68815;48.810;44.482;2023-09-30T05:14:52;14.3;;;4.7;;
79346;SDS011;68815;48.810;44.482;2023-09-30T05:17:53;13.5;;;4.7;;
79346;SDS011;68815;48.810;44.482;2023-09-30T05:20:55;10.5;;;4;;
79346;SDS011;68815;48.810;44.482;2023-09-30T05:23:56;11.3;;;4.6;;
79346;SDS011;68815;48.810;44.482;2023-09-30T05:26:58;10.7;;;4.7;;
79346;SDS011;68815;48.810;44.482;2023-09-30T05:29:59;12.2;;;4.4;;
79346;SDS011;68815;48.810;44.482;2023-09-30T05:33:01;13.9;;;4.5;;
79346;SDS011;68815;48.810;44.482;2023-09-30T05:36:02;12.8;;;4.6;;
79346;SDS011;68815;48.810;44.482;2023-09-30T05:39:04;11.6;;;4.5;;
79346;SDS011;68815;48.810;44.482;2023-09-30T05:42:05;9.2;;;4.2;;
79346;SDS011;68815;48.810;44.482;2023-09-30T05:45:07;10.9;;;4.4;;
79346;SDS011;68815;48.810;44.482;2023-09-30T05:48:09;10;;;4.3;;
79346;SDS011;68815;48.810;44.482;2023-09-30T05:51:11;9.6;;;4.3;;
79346;SDS011;68815;48.810;44.482;2023-09-30T05:54:12;9.2;;;4.7;;
79346;SDS011;68815;48.810;44.482;2023-09-30T05:57:14;9.8;;;4.6;;
79346;SDS011;68815;48.810;44.482;2023-09-30T06:00:16;10.4;;;4.6;;
79346;SDS011;68815;48.810;44.482;2023-09-30T06:03:17;10.4;;;4.7;;
79346;SDS011;68815;48.810;44.482;2023-09-30T06:06:19;9.7;;;4.8;;
79346;SDS011;68815;48.810;44.482;2023-09-30T06:09:21;9.8;;;4.8;;
79346;SDS011;68815;48.810;44.482;2023-09-30T06:12:22;15.7;;;5.5;;
79346;SDS011;68815;48.810;44.482;2023-09-30T06:15:24;12;;;5;;
79346;SDS011;68815;48.810;44.482;2023-09-30T06:18:26;11.6;;;4.6;;
79346;SDS011;68815;48.810;44.482;2023-09-30T06:21:27;13;;;5.1;;
79346;SDS011;68815;48.810;44.482;2023-09-30T06:24:29;10.8;;;5.1;;
79346;SDS011;68815;48.810;44.482;2023-09-30T06:27:31;9.2;;;4.3;;
79346;SDS011;68815;48.810;44.482;2023-09-30T06:30:32;12.3;;;4.5;;
79346;SDS011;68815;48.810;44.482;2023-09-30T06:33:33;11.3;;;4.5;;
79346;SDS011;68815;48.810;44.482;2023-09-30T06:36:35;9.6;;;4.8;;
79346;SDS011;68815;48.810;44.482;2023-09-30T06:39:36;12;;;4.6;;
79346;SDS011;68815;48.810;44.482;2023-09-30T06:42:38;10.6;;;4.7;;
79346;SDS011;68815;48.810;44.482;2023-09-30T06:45:40;12.3;;;4.9;;
79346;SDS011;68815;48.810;44.482;2023-09-30T06:48:41;10;;;4.3;;
79346;SDS011;68815;48.810;44.482;2023-09-30T06:51:43;10.1;;;4.4;;
79346;SDS011;68815;48.810;44.482;2023-09-30T06:54:44;9.2;;;4.1;;
79346;SDS011;68815;48.810;44.482;2023-09-30T06:57:46;10.3;;;4.7;;
79346;SDS011;68815;48.810;44.482;2023-09-30T07:00:48;11;;;4.5;;
79346;SDS011;68815;48.810;44.482;2023-09-30T07:03:50;9.8;;;4;;
79346;SDS011;68815;48.810;44.482;2023-09-30T07:06:52;10.3;;;4.1;;
79346;SDS011;68815;48.810;44.482;2023-09-30T07:09:54;11.1;;;4.1;;
79346;SDS011;68815;48.810;44.482;2023-09-30T07:12:56;8.5;;;4.5;;
79346;SDS011;68815;48.810;44.482;2023-09-30T07:15:58;10;;;4.4;;
79346;SDS011;68815;48.810;44.482;2023-09-30T07:19:00;9;;;4;;
79346;SDS011;68815;48.810;44.482;2023-09-30T07:22:01;9.5;;;4;;
79346;SDS011;68815;48.810;44.482;2023-09-30T07:25:03;7.8;;;4.3;;
79346;SDS011;68815;48.810;44.482;2023-09-30T07:28:05;11.5;;;4.3;;
79346;SDS011;68815;48.810;44.482;2023-09-30T07:31:06;10.1;;;3.8;;
79346;SDS011;68815;48.810;44.482;2023-09-30T07:34:08;14.8;;;4.7;;
79346;SDS011;68815;48.810;44.482;2023-09-30T07:37:09;11.9;;;4.3;;
79346;SDS011;68815;48.810;44.482;2023-09-30T07:40:11;15.3;;;4.3;;
79346;SDS011;68815;48.810;44.482;2023-09-30T07:43:13;9.2;;;3.9;;
79346;SDS011;68815;48.810;44.482;2023-09-30T07:46:15;9.4;;;4.1;;
79346;SDS011;68815;48.810;44.482;2023-09-30T07:49:17;9.1;;;4;;
79346;SDS011;68815;48.810;44.482;2023-09-30T07:52:19;8.6;;;3.6;;
79346;SDS011;68815;48.810;44.482;2023-09-30T07:55:20;9.7;;;3.7;;
79346;SDS011;68815;48.810;44.482;2023-09-30T07:58:22;10.6;;;3.9;;
79346;SDS011;68815;48.810;44.482;2023-09-30T08:01:23;9.5;;;4.1;;
79346;SDS011;68815;48.810;44.482;2023-09-30T08:04:25;8.4;;;3.6;;
79346;SDS011;68815;48.810;44.482;2023-09-30T08:07:26;9.6;;;3.8;;
79346;SDS011;68815;48.810;44.482;2023-09-30T08:10:28;8.8;;;3.9;;
79346;SDS011;68815;48.810;44.482;2023-09-30T08:13:30;9.9;;;3.9;;
79346;SDS011;68815;48.810;44.482;2023-09-30T08:16:32;9.5;;;3.7;;
79346;SDS011;68815;48.810;44.482;2023-09-30T08:19:33;7.3;;;3.6;;
79346;SDS011;68815;48.810;44.482;2023-09-30T08:22:35;7.7;;;3.7;;
79346;SDS011;68815;48.810;44.482;2023-09-30T08:25:36;8.4;;;3.7;;
79346;SDS011;68815;48.810;44.482;2023-09-30T08:28:38;13.2;;;4.2;;
79346;SDS011;68815;48.810;44.482;2023-09-30T08:31:39;10.2;;;4.1;;
79346;SDS011;68815;48.810;44.482;2023-09-30T08:34:40;8.9;;;3.6;;
79346;SDS011;68815;48.810;44.482;2023-09-30T08:37:42;8.3;;;4;;
79346;SDS011;68815;48.810;44.482;2023-09-30T08:40:44;9.3;;;3.9;;
79346;SDS011;68815;48.810;44.482;2023-09-30T08:43:45;9.9;;;3.8;;
79346;SDS011;68815;48.810;44.482;2023-09-30T08:46:47;8.7;;;4;;
79346;SDS011;68815;48.810;44.482;2023-09-30T08:49:52;9.9;;;3.7;;
79346;SDS011;68815;48.810;44.482;2023-09-30T08:52:54;8.6;;;4;;
79346;SDS011;68815;48.810;44.482;2023-09-30T08:55:57;7.6;;;3.7;;
79346;SDS011;68815;48.810;44.482;2023-09-30T08:59:01;8.7;;;3.8;;
79346;SDS011;68815;48.810;44.482;2023-09-30T09:02:04;13.4;;;3.9;;
79346;SDS011;68815;48.810;44.482;2023-09-30T09:05:10;9.7;;;3.9;;
79346;SDS011;68815;48.810;44.482;2023-09-30T09:08:11;10;;;3.8;;
79346;SDS011;68815;48.810;44.482;2023-09-30T09:11:13;7.6;;;3.6;;
79346;SDS011;68815;48.810;44.482;2023-09-30T09:14:15;8.1;;;3.5;;
79346;SDS011;68815;48.810;44.482;2023-09-30T09:17:16;10.1;;;3.8;;
79346;SDS011;68815;48.810;44.482;2023-09-30T09:20:18;9;;;3.8;;
79346;SDS011;68815;48.810;44.482;2023-09-30T09:23:21;8.1;;;4;;
79346;SDS011;68815;48.810;44.482;2023-09-30T09:26:23;12.1;;;3.8;;
79346;SDS011;68815;48.810;44.482;2023-09-30T09:29:26;8.5;;;3.7;;
79346;SDS011;68815;48.810;44.482;2023-09-30T09:32:28;8.1;;;4;;
79346;SDS011;68815;48.810;44.482;2023-09-30T09:35:30;11;;;3.9;;
79346;SDS011;68815;48.810;44.482;2023-09-30T09:41:49;7.3;;;3.6;;
79346;SDS011;68815;48.810;44.482;2023-09-30T09:44:52;10.2;;;3.8;;
79346;SDS011;68815;48.810;44.482;2023-09-30T09:47:55;6.9;;;3.5;;
79346;SDS011;68815;48.810;44.482;2023-09-30T09:50:58;9;;;3.7;;
79346;SDS011;68815;48.810;44.482;2023-09-30T09:54:00;10.1;;;3.5;;
79346;SDS011;68815;48.810;44.482;2023-09-30T09:57:05;8.4;;;3.3;;
79346;SDS011;68815;48.810;44.482;2023-09-30T10:00:12;8.3;;;3.4;;
79346;SDS011;68815;48.810;44.482;2023-09-30T10:03:14;8.3;;;3.5;;
79346;SDS011;68815;48.810;44.482;2023-09-30T10:06:16;9.1;;;3.5;;
79346;SDS011;68815;48.810;44.482;2023-09-30T10:09:17;8.6;;;3.3;;
79346;SDS011;68815;48.810;44.482;2023-09-30T10:12:19;7.7;;;3.1;;
79346;SDS011;68815;48.810;44.482;2023-09-30T10:28:39;6.7;;;2.4;;
79346;SDS011;68815;48.810;44.482;2023-09-30T10:31:49;7.5;;;2.9;;
79346;SDS011;68815;48.810;44.482;2023-09-30T10:34:51;7.7;;;4;;
79346;SDS011;68815;48.810;44.482;2023-09-30T10:38:36;6;;;3.5;;
79346;SDS011;68815;48.810;44.482;2023-09-30T10:44:43;12.6;;;3.2;;
79346;SDS011;68815;48.810;44.482;2023-09-30T10:47:44;9.2;;;4.4;;
79346;SDS011;68815;48.810;44.482;2023-09-30T10:50:49;8.1;;;3.4;;
79346;SDS011;68815;48.810;44.482;2023-09-30T10:53:53;11.2;;;3.3;;
79346;SDS011;68815;48.810;44.482;2023-09-30T10:56:55;8.1;;;3.4;;
79346;SDS011;68815;48.810;44.482;2023-09-30T11:03:14;10.2;;;4.1;;
79346;SDS011;68815;48.810;44.482;2023-09-30T11:06:17;8.6;;;3.9;;
79346;SDS011;68815;48.810;44.482;2023-09-30T11:09:21;11.6;;;4.4;;
79346;SDS011;68815;48.810;44.482;2023-09-30T11:12:23;9.5;;;3.7;;
79346;SDS011;68815;48.810;44.482;2023-09-30T11:15:25;8.8;;;4.4;;
79346;SDS011;68815;48.810;44.482;2023-09-30T11:18:26;10.4;;;4.1;;
79346;SDS011;68815;48.810;44.482;2023-09-30T11:21:28;9.1;;;4.3;;
79346;SDS011;68815;48.810;44.482;2023-09-30T11:24:30;8.3;;;3.6;;
79346;SDS011;68815;48.810;44.482;2023-09-30T11:27:31;7.5;;;3.8;;
79346;SDS011;68815;48.810;44.482;2023-09-30T11:30:33;10;;;4.1;;
79346;SDS011;68815;48.810;44.482;2023-09-30T11:33:34;8.4;;;3.8;;
79346;SDS011;68815;48.810;44.482;2023-09-30T11:36:49;9.5;;;3.7;;
79346;SDS011;68815;48.810;44.482;2023-09-30T11:39:52;11.2;;;4.5;;
79346;SDS011;68815;48.810;44.482;2023-09-30T11:46:09;10.2;;;4.2;;
79346;SDS011;68815;48.810;44.482;2023-09-30T11:49:11;7.9;;;3.5;;
79346;SDS011;68815;48.810;44.482;2023-09-30T11:52:13;8.7;;;4.1;;
79346;SDS011;68815;48.810;44.482;2023-09-30T11:55:15;9;;;3.4;;
79346;SDS011;68815;48.810;44.482;2023-09-30T11:58:16;7.1;;;3.4;;
79346;SDS011;68815;48.810;44.482;2023-09-30T12:01:18;9.4;;;3.6;;
79346;SDS011;68815;48.810;44.482;2023-09-30T12:04:19;8.9;;;3.7;;
79346;SDS011;68815;48.810;44.482;2023-09-30T12:07:21;7.9;;;3.5;;
79346;SDS011;68815;48.810;44.482;2023-09-30T12:10:22;8.1;;;3.4;;
79346;SDS011;68815;48.810;44.482;2023-09-30T12:13:23;7;;;3.5;;
79346;SDS011;68815;48.810;44.482;2023-09-30T12:16:25;10.4;;;3.4;;
79346;SDS011;68815;48.810;44.482;2023-09-30T12:19:27;7.7;;;3.5;;
79346;SDS011;68815;48.810;44.482;2023-09-30T12:22:28;13.5;;;3.5;;
79346;SDS011;68815;48.810;44.482;2023-09-30T12:25:29;6.8;;;3.3;;
79346;SDS011;68815;48.810;44.482;2023-09-30T12:28:31;7.7;;;3.7;;
79346;SDS011;68815;48.810;44.482;2023-09-30T12:31:33;8.6;;;3.6;;
79346;SDS011;68815;48.810;44.482;2023-09-30T12:34:35;8.4;;;3.4;;
79346;SDS011;68815;48.810;44.482;2023-09-30T12:37:36;9.1;;;3.8;;
79346;SDS011;68815;48.810;44.482;2023-09-30T12:40:38;9.6;;;3.5;;
79346;SDS011;68815;48.810;44.482;2023-09-30T12:43:39;7.5;;;3.9;;
79346;SDS011;68815;48.810;44.482;2023-09-30T12:46:41;7.5;;;3.2;;
79346;SDS011;68815;48.810;44.482;2023-09-30T12:49:43;8.3;;;3.6;;
79346;SDS011;68815;48.810;44.482;2023-09-30T12:52:44;9.6;;;3.6;;
79346;SDS011;68815;48.810;44.482;2023-09-30T12:55:45;10.3;;;3.7;;
79346;SDS011;68815;48.810;44.482;2023-09-30T12:58:47;10.5;;;4.1;;
79346;SDS011;68815;48.810;44.482;2023-09-30T13:01:48;8.7;;;3.3;;
79346;SDS011;68815;48.810;44.482;2023-09-30T13:04:50;8.1;;;3.3;;
79346;SDS011;68815;48.810;44.482;2023-09-30T13:07:51;6.9;;;3.3;;
79346;SDS011;68815;48.810;44.482;2023-09-30T13:10:53;10.2;;;3.4;;
79346;SDS011;68815;48.810;44.482;2023-09-30T13:13:54;8.9;;;3.7;;
79346;SDS011;68815;48.810;44.482;2023-09-30T13:16:56;9.9;;;3.7;;
79346;SDS011;68815;48.810;44.482;2023-09-30T13:19:58;8.8;;;3.3;;
79346;SDS011;68815;48.810;44.482;2023-09-30T13:22:59;15.3;;;4;;
79346;SDS011;68815;48.810;44.482;2023-09-30T13:26:01;9.8;;;3.9;;
79346;SDS011;68815;48.810;44.482;2023-09-30T13:29:03;8.9;;;3.3;;
79346;SDS011;68815;48.810;44.482;2023-09-30T13:32:04;10.3;;;3.5;;
79346;SDS011;68815;48.810;44.482;2023-09-30T13:35:06;8.4;;;3.4;;
79346;SDS011;68815;48.810;44.482;2023-09-30T13:38:08;8.5;;;3.7;;
79346;SDS011;68815;48.810;44.482;2023-09-30T13:41:09;10.8;;;4;;
79346;SDS011;68815;48.810;44.482;2023-09-30T13:44:11;9.6;;;3.9;;
79346;SDS011;68815;48.810;44.482;2023-09-30T13:47:13;7.6;;;3.9;;
79346;SDS011;68815;48.810;44.482;2023-09-30T13:50:15;6.4;;;3.4;;
79346;SDS011;68815;48.810;44.482;2023-09-30T13:53:16;10.3;;;3.7;;
79346;SDS011;68815;48.810;44.482;2023-09-30T13:56:17;8.6;;;3.8;;
79346;SDS011;68815;48.810;44.482;2023-09-30T13:59:19;9.5;;;4;;
79346;SDS011;68815;48.810;44.482;2023-09-30T14:02:20;8.9;;;3.9;;
79346;SDS011;68815;48.810;44.482;2023-09-30T14:05:21;7;;;3.7;;
79346;SDS011;68815;48.810;44.482;2023-09-30T14:08:23;10.9;;;4.4;;
79346;SDS011;68815;48.810;44.482;2023-09-30T14:11:24;10.1;;;4;;
79346;SDS011;68815;48.810;44.482;2023-09-30T14:14:26;10.7;;;3.9;;
79346;SDS011;68815;48.810;44.482;2023-09-30T14:17:28;10.1;;;4;;
79346;SDS011;68815;48.810;44.482;2023-09-30T14:20:29;11.1;;;4.2;;
79346;SDS011;68815;48.810;44.482;2023-09-30T14:23:30;10.3;;;4.2;;
79346;SDS011;68815;48.810;44.482;2023-09-30T14:26:32;11.6;;;4.4;;
79346;SDS011;68815;48.810;44.482;2023-09-30T14:29:34;10.5;;;4.6;;
79346;SDS011;68815;48.810;44.482;2023-09-30T14:32:35;19;;;6.1;;
79346;SDS011;68815;48.810;44.482;2023-09-30T14:35:37;16.4;;;5.8;;
79346;SDS011;68815;48.810;44.482;2023-09-30T14:38:38;18.5;;;6;;
79346;SDS011;68815;48.810;44.482;2023-09-30T14:41:40;13;;;5.4;;
79346;SDS011;68815;48.810;44.482;2023-09-30T14:44:41;16.3;;;5.2;;
79346;SDS011;68815;48.810;44.482;2023-09-30T14:47:43;13.7;;;5.5;;
79346;SDS011;68815;48.810;44.482;2023-09-30T14:50:48;15.4;;;6.3;;
79346;SDS011;68815;48.810;44.482;2023-09-30T14:53:50;17.8;;;7.2;;
79346;SDS011;68815;48.810;44.482;2023-09-30T14:56:51;20.7;;;7.9;;
79346;SDS011;68815;48.810;44.482;2023-09-30T14:59:53;21.9;;;8.2;;
79346;SDS011;68815;48.810;44.482;2023-09-30T15:02:54;17.5;;;7.5;;
79346;SDS011;68815;48.810;44.482;2023-09-30T15:05:57;19.3;;;7.4;;
79346;SDS011;68815;48.810;44.482;2023-09-30T15:08:59;21.6;;;8;;
79346;SDS011;68815;48.810;44.482;2023-09-30T15:12:00;20.1;;;7.8;;
79346;SDS011;68815;48.810;44.482;2023-09-30T15:15:02;19.9;;;7.8;;
79346;SDS011;68815;48.810;44.482;2023-09-30T15:18:06;18.8;;;8.1;;
79346;SDS011;68815;48.810;44.482;2023-09-30T15:21:08;21;;;8.4;;
79346;SDS011;68815;48.810;44.482;2023-09-30T15:24:09;24.5;;;9.4;;
79346;SDS011;68815;48.810;44.482;2023-09-30T15:27:10;24.6;;;9.5;;
79346;SDS011;68815;48.810;44.482;2023-09-30T15:30:12;23.9;;;9.4;;
79346;SDS011;68815;48.810;44.482;2023-09-30T15:33:13;22.5;;;9.1;;
79346;SDS011;68815;48.810;44.482;2023-09-30T15:36:15;16.5;;;6.9;;
79346;SDS011;68815;48.810;44.482;2023-09-30T15:39:17;19.4;;;7.4;;
79346;SDS011;68815;48.810;44.482;2023-09-30T15:42:18;15.2;;;6.4;;
79346;SDS011;68815;48.810;44.482;2023-09-30T15:45:20;16.4;;;6.3;;
79346;SDS011;68815;48.810;44.482;2023-09-30T15:48:21;16.7;;;6.4;;
79346;SDS011;68815;48.810;44.482;2023-09-30T15:51:23;16.5;;;6.2;;
79346;SDS011;68815;48.810;44.482;2023-09-30T15:54:24;13;;;5.9;;
79346;SDS011;68815;48.810;44.482;2023-09-30T15:57:26;15.3;;;6.6;;
79346;SDS011;68815;48.810;44.482;2023-09-30T16:00:27;14.2;;;6.7;;
79346;SDS011;68815;48.810;44.482;2023-09-30T16:03:29;16.6;;;5.9;;
79346;SDS011;68815;48.810;44.482;2023-09-30T16:06:30;14.5;;;6.2;;
79346;SDS011;68815;48.810;44.482;2023-09-30T16:09:32;12.6;;;5.7;;
79346;SDS011;68815;48.810;44.482;2023-09-30T16:12:33;12.8;;;4.9;;
79346;SDS011;68815;48.810;44.482;2023-09-30T16:15:37;15.5;;;5.8;;
79346;SDS011;68815;48.810;44.482;2023-09-30T16:18:39;11.4;;;5;;
79346;SDS011;68815;48.810;44.482;2023-09-30T16:21:41;13.9;;;5;;
79346;SDS011;68815;48.810;44.482;2023-09-30T16:24:43;12.6;;;5.1;;
79346;SDS011;68815;48.810;44.482;2023-09-30T16:27:44;14.3;;;5.1;;
79346;SDS011;68815;48.810;44.482;2023-09-30T16:30:46;13;;;5.2;;
79346;SDS011;68815;48.810;44.482;2023-09-30T16:33:47;11.7;;;5.1;;
79346;SDS011;68815;48.810;44.482;2023-09-30T16:36:48;12.7;;;5.2;;
79346;SDS011;68815;48.810;44.482;2023-09-30T16:39:50;12.2;;;5.5;;
79346;SDS011;68815;48.810;44.482;2023-09-30T16:42:52;10.2;;;5;;
79346;SDS011;68815;48.810;44.482;2023-09-30T16:45:53;12.2;;;5.2;;
79346;SDS011;68815;48.810;44.482;2023-09-30T16:48:54;12;;;5.3;;
79346;SDS011;68815;48.810;44.482;2023-09-30T16:51:57;11.5;;;5.3;;
79346;SDS011;68815;48.810;44.482;2023-09-30T16:54:58;12.7;;;5.2;;
79346;SDS011;68815;48.810;44.482;2023-09-30T16:58:00;14.4;;;4.9;;
79346;SDS011;68815;48.810;44.482;2023-09-30T17:01:01;12.1;;;5.1;;
79346;SDS011;68815;48.810;44.482;2023-09-30T17:04:03;9.5;;;4.8;;
79346;SDS011;68815;48.810;44.482;2023-09-30T17:07:05;14.8;;;5.1;;
79346;SDS011;68815;48.810;44.482;2023-09-30T17:10:07;11.4;;;5.1;;
79346;SDS011;68815;48.810;44.482;2023-09-30T17:13:08;12.7;;;5.3;;
79346;SDS011;68815;48.810;44.482;2023-09-30T17:16:10;8.3;;;4.4;;
79346;SDS011;68815;48.810;44.482;2023-09-30T17:19:18;12.2;;;4.7;;
79346;SDS011;68815;48.810;44.482;2023-09-30T17:22:19;12.6;;;5.4;;
79346;SDS011;68815;48.810;44.482;2023-09-30T17:25:21;10.9;;;4.9;;
79346;SDS011;68815;48.810;44.482;2023-09-30T17:28:22;9.1;;;4.5;;
79346;SDS011;68815;48.810;44.482;2023-09-30T17:31:24;11.4;;;4.7;;
79346;SDS011;68815;48.810;44.482;2023-09-30T17:34:25;10.8;;;4.9;;
79346;SDS011;68815;48.810;44.482;2023-09-30T17:37:26;8.3;;;4.3;;
79346;SDS011;68815;48.810;44.482;2023-09-30T17:40:28;11.4;;;4.7;;
79346;SDS011;68815;48.810;44.482;2023-09-30T17:43:30;10.7;;;4.4;;
79346;SDS011;68815;48.810;44.482;2023-09-30T17:46:31;11.4;;;4.4;;
79346;SDS011;68815;48.810;44.482;2023-09-30T17:49:33;10.8;;;4.7;;
79346;SDS011;68815;48.810;44.482;2023-09-30T17:52:34;10.2;;;4.7;;
79346;SDS011;68815;48.810;44.482;2023-09-30T17:55:36;10.9;;;4.3;;
79346;SDS011;68815;48.810;44.482;2023-09-30T17:58:38;8.7;;;4.1;;
79346;SDS011;68815;48.810;44.482;2023-09-30T18:01:39;10.2;;;4.4;;
79346;SDS011;68815;48.810;44.482;2023-09-30T18:04:41;10.8;;;4.6;;
79346;SDS011;68815;48.810;44.482;2023-09-30T18:07:42;9.2;;;4.1;;
79346;SDS011;68815;48.810;44.482;2023-09-30T18:10:44;12.1;;;4.8;;
79346;SDS011;68815;48.810;44.482;2023-09-30T18:13:45;11.5;;;4.8;;
79346;SDS011;68815;48.810;44.482;2023-09-30T18:16:47;11.1;;;4.9;;
79346;SDS011;68815;48.810;44.482;2023-09-30T18:19:49;13.6;;;5.1;;
79346;SDS011;68815;48.810;44.482;2023-09-30T18:22:50;12.6;;;5.3;;
79346;SDS011;68815;48.810;44.482;2023-09-30T18:25:52;11.7;;;4.8;;
79346;SDS011;68815;48.810;44.482;2023-09-30T18:28:54;12.4;;;5;;
79346;SDS011;68815;48.810;44.482;2023-09-30T18:31:55;13.2;;;5;;
79346;SDS011;68815;48.810;44.482;2023-09-30T18:34:56;13.3;;;5;;
79346;SDS011;68815;48.810;44.482;2023-09-30T18:37:58;10.3;;;5.3;;
79346;SDS011;68815;48.810;44.482;2023-09-30T18:40:59;11.4;;;5;;
79346;SDS011;68815;48.810;44.482;2023-09-30T18:44:01;14.2;;;4.9;;
79346;SDS011;68815;48.810;44.482;2023-09-30T18:47:02;11.4;;;5.3;;
79346;SDS011;68815;48.810;44.482;2023-09-30T18:50:04;11.8;;;5.5;;
79346;SDS011;68815;48.810;44.482;2023-09-30T18:53:06;10.4;;;4.8;;
79346;SDS011;68815;48.810;44.482;2023-09-30T18:56:07;12.7;;;5.8;;
79346;SDS011;68815;48.810;44.482;2023-09-30T18:59:09;11.9;;;5.2;;